Terminal Aerodrome Forecast
Issued by NWS

Home | Current Version | Previous Version | Text Only | Print | Product List | Glossary On
Versions: 1 2 3 4 5 6 7 8 9 10 11 12 13 14 15 16 17
000
FTUS43 KDTX 110535 RRA
TAFDET
TAF
KDET 110535Z 1106/1206 25005KT P6SM -SHSN SCT040 OVC100
     FM110700 20005KT 3SM -SN OVC040
     FM110900 18007KT 1 1/2SM -SN OVC015
     FM111600 17010KT 3/4SM -SN OVC010
     FM111800 15014KT 1/2SM SN OVC006
     FM120100 19011KT 3/4SM -SN OVC006
     FM120400 20009KT 3SM -SN OVC009=

USA.gov is the U.S. government's official web portal to all federal, state and local government web resources and services.